createdAt,value
2019-01-21T00:00:47.772Z,4.00
2019-01-21T00:01:47.709Z,4.00
2019-01-21T00:02:47.679Z,4.00
2019-01-21T00:03:47.638Z,4.00
2019-01-21T00:04:47.610Z,4.00
2019-01-21T00:05:47.579Z,4.00
2019-01-21T00:06:47.550Z,4.00
2019-01-21T00:07:47.535Z,4.00
2019-01-21T00:08:47.488Z,4.00
2019-01-21T00:09:47.461Z,4.00
2019-01-21T00:10:47.428Z,4.00
2019-01-21T00:11:47.398Z,4.00
2019-01-21T00:12:47.367Z,4.00
2019-01-21T00:13:47.338Z,4.00
2019-01-21T00:14:47.305Z,4.00
2019-01-21T00:15:47.372Z,4.00
2019-01-21T00:16:47.246Z,4.00
2019-01-21T00:17:47.214Z,4.00
2019-01-21T00:18:47.193Z,4.00
2019-01-21T00:19:47.169Z,4.00
2019-01-21T00:20:47.125Z,4.00
2019-01-21T00:21:47.101Z,4.00
2019-01-21T00:22:47.063Z,4.00
2019-01-21T00:23:47.050Z,4.00
2019-01-21T00:24:47.012Z,4.00
2019-01-21T00:25:46.972Z,4.00
2019-01-21T00:26:46.953Z,4.00
2019-01-21T00:27:46.911Z,4.00
2019-01-21T00:28:46.883Z,4.00
2019-01-21T00:29:46.851Z,4.00
2019-01-21T00:30:46.823Z,4.00
2019-01-21T00:31:46.791Z,4.00
2019-01-21T00:32:46.768Z,4.00
2019-01-21T00:33:46.732Z,4.00
2019-01-21T00:34:46.701Z,4.00
2019-01-21T00:35:46.669Z,4.00
2019-01-21T00:36:46.640Z,4.00
2019-01-21T00:37:46.613Z,4.00
2019-01-21T00:38:46.579Z,4.00
2019-01-21T00:39:46.556Z,4.00
2019-01-21T00:40:46.517Z,4.00
2019-01-21T00:41:46.487Z,4.00
2019-01-21T00:42:46.457Z,4.00
2019-01-21T00:43:46.429Z,4.00
2019-01-21T00:44:46.397Z,4.00
2019-01-21T00:45:46.368Z,4.00
2019-01-21T00:46:46.337Z,4.00
2019-01-21T00:47:46.308Z,4.00
2019-01-21T00:48:46.275Z,4.00
2019-01-21T00:49:46.243Z,4.00
2019-01-21T00:50:46.213Z,4.00
2019-01-21T00:51:46.184Z,4.00
2019-01-21T00:52:46.155Z,4.00
2019-01-21T00:53:46.123Z,4.00
2019-01-21T00:54:46.091Z,4.00
2019-01-21T00:55:46.061Z,4.00
2019-01-21T00:56:46.047Z,4.00
2019-01-21T00:57:46.006Z,4.00
2019-01-21T00:58:45.970Z,4.00
2019-01-21T00:59:45.939Z,4.00
2019-01-21T01:00:45.919Z,4.00
2019-01-21T01:01:45.878Z,4.00
2019-01-21T01:02:45.847Z,4.00
2019-01-21T01:03:45.816Z,4.00
2019-01-21T01:04:45.790Z,4.00
2019-01-21T01:05:45.755Z,4.00
2019-01-21T01:06:45.726Z,4.00
2019-01-21T01:07:45.703Z,4.00
2019-01-21T01:08:45.667Z,4.00
2019-01-21T01:09:45.643Z,4.00
2019-01-21T01:10:45.605Z,4.00
2019-01-21T01:11:45.575Z,4.00
2019-01-21T01:12:45.544Z,4.00
2019-01-21T01:13:45.513Z,4.00
2019-01-21T01:14:45.483Z,4.00
2019-01-21T01:15:45.452Z,4.00
2019-01-21T01:16:45.423Z,4.00
2019-01-21T01:17:45.390Z,4.00
2019-01-21T01:18:45.371Z,4.00
2019-01-21T01:19:45.342Z,4.00
2019-01-21T01:20:45.307Z,4.00
2019-01-21T01:21:45.329Z,4.00
2019-01-21T01:22:45.244Z,4.00
2019-01-21T01:23:45.209Z,4.00
2019-01-21T01:24:45.176Z,4.00
2019-01-21T01:25:45.149Z,4.00
2019-01-21T01:26:45.117Z,4.00
2019-01-21T01:27:45.086Z,4.00
2019-01-21T01:28:45.063Z,4.00
2019-01-21T01:29:45.026Z,4.00
2019-01-21T01:30:44.994Z,4.00
2019-01-21T01:31:44.962Z,4.00
2019-01-21T01:32:44.948Z,4.00
2019-01-21T01:33:44.902Z,4.00
2019-01-21T01:34:44.871Z,4.00
2019-01-21T01:35:44.843Z,4.00
2019-01-21T01:36:44.811Z,4.00
2019-01-21T01:37:44.784Z,4.00
2019-01-21T01:38:44.749Z,4.00
2019-01-21T01:39:44.718Z,4.00
2019-01-21T01:40:44.689Z,4.00
2019-01-21T01:41:44.657Z,4.00
2019-01-21T01:42:44.628Z,4.00
2019-01-21T01:43:44.596Z,4.00
2019-01-21T01:44:44.568Z,4.00
2019-01-21T01:45:44.536Z,4.00
2019-01-21T01:46:44.506Z,4.00
2019-01-21T01:47:45.084Z,4.00
2019-01-21T01:48:44.445Z,4.00
2019-01-21T01:49:44.429Z,4.00
2019-01-21T01:50:44.381Z,4.00
2019-01-21T01:51:44.352Z,4.00
2019-01-21T01:52:44.320Z,4.00
2019-01-21T01:53:44.290Z,4.00
2019-01-21T01:54:44.259Z,4.00
2019-01-21T01:55:44.231Z,4.00
2019-01-21T01:56:44.198Z,4.00
2019-01-21T01:57:44.175Z,4.00
2019-01-21T01:58:44.136Z,4.00
2019-01-21T01:59:44.105Z,4.00
2019-01-21T02:00:44.074Z,4.00
2019-01-21T02:01:44.045Z,4.00
2019-01-21T02:02:44.012Z,4.00
2019-01-21T02:03:43.983Z,4.00
2019-01-21T02:04:43.953Z,4.00
2019-01-21T02:05:43.921Z,4.00
2019-01-21T02:06:43.889Z,4.00
2019-01-21T02:07:43.862Z,4.00
2019-01-21T02:08:43.830Z,4.00
2019-01-21T02:09:43.799Z,4.00
2019-01-21T02:10:43.768Z,4.00
2019-01-21T02:11:43.738Z,4.00
2019-01-21T02:12:43.707Z,4.00
2019-01-21T02:13:43.676Z,4.00
2019-01-21T02:14:43.645Z,4.00
2019-01-21T02:15:43.622Z,4.00
2019-01-21T02:16:43.585Z,4.00
2019-01-21T02:17:43.554Z,4.00
2019-01-21T02:18:43.523Z,4.00
2019-01-21T02:19:43.493Z,4.00
2019-01-21T02:20:43.461Z,4.00
2019-01-21T02:21:43.430Z,4.00
2019-01-21T02:22:43.400Z,4.00
2019-01-21T02:23:43.421Z,4.00
2019-01-21T02:24:43.339Z,4.00
2019-01-21T02:25:43.313Z,4.00
2019-01-21T02:26:43.279Z,4.00
2019-01-21T02:27:43.247Z,4.00
2019-01-21T02:28:43.217Z,4.00
2019-01-21T02:29:43.186Z,4.00
2019-01-21T02:30:43.154Z,4.00
2019-01-21T02:31:43.127Z,4.00
2019-01-21T02:32:43.103Z,4.00
2019-01-21T02:33:43.062Z,4.00
2019-01-21T02:34:43.040Z,4.00
2019-01-21T02:35:43.000Z,4.00
2019-01-21T02:36:42.974Z,4.00
2019-01-21T02:37:42.940Z,4.00
2019-01-21T02:38:42.910Z,4.00
2019-01-21T02:39:42.878Z,4.00
2019-01-21T02:40:42.847Z,4.00
2019-01-21T02:41:42.823Z,4.00
2019-01-21T02:42:42.787Z,4.00
2019-01-21T02:43:42.754Z,4.00
2019-01-21T02:44:42.727Z,4.00
2019-01-21T02:45:42.692Z,4.00
2019-01-21T02:46:42.663Z,4.00
2019-01-21T02:47:42.633Z,4.00
2019-01-21T02:48:42.602Z,4.00
2019-01-21T02:49:42.571Z,4.00
2019-01-21T02:50:42.546Z,4.00
2019-01-21T02:51:42.509Z,4.00
2019-01-21T02:52:42.479Z,4.00
2019-01-21T02:53:42.448Z,4.00
2019-01-21T02:54:42.420Z,4.00
2019-01-21T02:55:42.386Z,4.00
2019-01-21T02:56:42.356Z,4.00
2019-01-21T02:57:42.325Z,4.00
2019-01-21T02:58:42.293Z,4.00
2019-01-21T02:59:42.264Z,4.00
2019-01-21T03:00:42.248Z,4.00
2019-01-21T03:01:42.203Z,4.00
2019-01-21T03:02:42.172Z,4.00
2019-01-21T03:03:42.153Z,4.00
2019-01-21T03:04:42.120Z,4.00
2019-01-21T03:05:42.088Z,4.00
2019-01-21T03:06:42.049Z,4.00
2019-01-21T03:07:42.019Z,4.00
2019-01-21T03:08:41.987Z,4.00
2019-01-21T03:09:41.956Z,4.00
2019-01-21T03:10:41.925Z,4.00
2019-01-21T03:11:41.913Z,4.00
2019-01-21T03:12:41.867Z,4.00
2019-01-21T03:13:41.834Z,4.00
2019-01-21T03:14:41.807Z,4.00
2019-01-21T03:15:41.773Z,4.00
2019-01-21T03:16:41.749Z,4.00
2019-01-21T03:17:41.711Z,4.00
2019-01-21T03:18:41.683Z,4.00
2019-01-21T03:19:41.648Z,4.00
2019-01-21T03:20:41.617Z,4.00
2019-01-21T03:21:41.589Z,4.00
2019-01-21T03:22:41.555Z,4.00
2019-01-21T03:23:41.533Z,4.00
2019-01-21T03:24:41.493Z,4.00
2019-01-21T03:25:41.463Z,4.00
2019-01-21T03:26:41.436Z,4.00
2019-01-21T03:27:41.403Z,4.00
2019-01-21T03:28:41.372Z,4.00
2019-01-21T03:29:41.339Z,4.00
2019-01-21T03:30:41.315Z,4.00
2019-01-21T03:31:41.280Z,4.00
2019-01-21T03:32:41.259Z,4.00
2019-01-21T03:33:41.221Z,4.00
2019-01-21T03:34:41.189Z,4.00
2019-01-21T03:35:41.167Z,4.00
2019-01-21T03:36:41.127Z,4.00
2019-01-21T03:37:41.096Z,4.00
2019-01-21T03:38:41.063Z,4.00
2019-01-21T03:39:41.036Z,4.00
2019-01-21T03:40:41.009Z,4.00
2019-01-21T03:41:40.973Z,4.00
2019-01-21T03:42:40.940Z,4.00
2019-01-21T03:43:40.908Z,4.00
2019-01-21T03:44:40.884Z,4.00
2019-01-21T03:45:40.849Z,4.00
2019-01-21T03:46:40.816Z,4.00
2019-01-21T03:47:40.786Z,4.00
2019-01-21T03:48:40.755Z,4.00
2019-01-21T03:49:40.733Z,4.00
2019-01-21T03:50:40.696Z,4.00
2019-01-21T03:51:40.667Z,4.00
2019-01-21T03:52:40.632Z,4.00
2019-01-21T03:53:40.609Z,4.00
2019-01-21T03:54:40.572Z,4.00
2019-01-21T03:55:40.549Z,4.00
2019-01-21T03:56:40.659Z,4.00
2019-01-21T03:57:40.476Z,4.00
2019-01-21T03:58:40.446Z,4.00
2019-01-21T03:59:40.430Z,4.00
2019-01-21T04:00:40.385Z,4.00
2019-01-21T04:01:40.354Z,4.00
2019-01-21T04:02:40.372Z,4.00
2019-01-21T04:03:40.292Z,4.00
2019-01-21T04:04:40.261Z,4.00
2019-01-21T04:05:40.282Z,4.00
2019-01-21T04:06:40.198Z,4.00
2019-01-21T04:07:40.168Z,4.00
2019-01-21T04:08:40.135Z,4.00
2019-01-21T04:09:40.111Z,4.00
2019-01-21T04:10:40.091Z,4.00
2019-01-21T04:11:40.044Z,4.00
2019-01-21T04:12:40.014Z,4.00
2019-01-21T04:13:39.981Z,4.00
2019-01-21T04:14:39.961Z,4.00
2019-01-21T04:15:39.919Z,4.00
2019-01-21T04:16:39.890Z,4.00
2019-01-21T04:17:39.858Z,4.00
2019-01-21T04:18:39.826Z,4.00
2019-01-21T04:19:39.797Z,4.00
2019-01-21T04:20:39.764Z,4.00
2019-01-21T04:21:39.736Z,4.00
2019-01-21T04:22:39.705Z,4.00
2019-01-21T04:23:39.671Z,4.00
2019-01-21T04:24:39.653Z,4.00
2019-01-21T04:25:39.611Z,4.00
2019-01-21T04:26:39.590Z,4.00
2019-01-21T04:27:39.556Z,4.00
2019-01-21T04:28:39.519Z,4.00
2019-01-21T04:29:39.488Z,4.00
2019-01-21T04:30:39.454Z,4.00
2019-01-21T04:31:39.427Z,4.00
2019-01-21T04:32:39.404Z,4.00
2019-01-21T04:33:39.363Z,4.00
2019-01-21T04:34:39.329Z,4.00
2019-01-21T04:35:39.300Z,4.00
2019-01-21T04:36:39.289Z,4.00
2019-01-21T04:37:39.238Z,4.00
2019-01-21T04:38:39.222Z,4.00
2019-01-21T04:39:39.177Z,4.00
2019-01-21T04:40:39.145Z,4.00
2019-01-21T04:41:39.115Z,4.00
2019-01-21T04:42:39.085Z,4.00
2019-01-21T04:43:39.054Z,4.00
2019-01-21T04:44:39.026Z,4.00
2019-01-21T04:45:38.990Z,4.00
2019-01-21T04:46:38.959Z,4.00
2019-01-21T04:47:38.938Z,4.00
2019-01-21T04:48:38.896Z,4.00
2019-01-21T04:49:38.867Z,4.00
2019-01-21T04:50:38.834Z,4.00
2019-01-21T04:51:38.804Z,4.00
2019-01-21T04:52:38.774Z,4.00
2019-01-21T04:53:38.744Z,4.00
2019-01-21T04:54:38.710Z,4.00
2019-01-21T04:55:38.680Z,4.00
2019-01-21T04:56:38.649Z,4.00
2019-01-21T04:57:38.617Z,4.00
2019-01-21T04:58:38.585Z,4.00
2019-01-21T04:59:38.571Z,4.00
2019-01-21T05:00:38.537Z,4.00
2019-01-21T05:01:38.498Z,4.00
2019-01-21T05:02:38.469Z,4.00
2019-01-21T05:03:38.431Z,4.00
2019-01-21T05:04:38.410Z,4.00
2019-01-21T05:05:38.370Z,4.00
2019-01-21T05:06:38.336Z,4.00
2019-01-21T05:07:38.307Z,4.00
2019-01-21T05:08:38.275Z,4.00
2019-01-21T05:09:38.243Z,4.00
2019-01-21T05:10:38.211Z,4.00
2019-01-21T05:11:38.189Z,4.00
2019-01-21T05:12:38.151Z,4.00
2019-01-21T05:13:38.119Z,4.00
2019-01-21T05:14:38.087Z,4.00
2019-01-21T05:15:38.057Z,4.00
2019-01-21T05:16:38.024Z,4.00
2019-01-21T05:17:37.994Z,4.00
2019-01-21T05:18:41.251Z,4.00
2019-01-21T05:19:37.931Z,4.00
2019-01-21T05:20:37.903Z,4.00
2019-01-21T05:21:37.869Z,4.00
2019-01-21T05:22:37.837Z,4.00
2019-01-21T05:23:37.806Z,4.00
2019-01-21T05:24:37.776Z,4.00
2019-01-21T05:25:37.745Z,4.00
2019-01-21T05:26:37.721Z,4.00
2019-01-21T05:27:37.691Z,4.00
2019-01-21T05:28:37.658Z,4.00
2019-01-21T05:29:37.620Z,4.00
2019-01-21T05:30:37.590Z,4.00
2019-01-21T05:31:37.602Z,4.00
2019-01-21T05:32:37.537Z,4.00
2019-01-21T05:33:37.495Z,4.00
2019-01-21T05:34:37.466Z,4.00
2019-01-21T05:35:37.449Z,4.00
2019-01-21T05:36:37.405Z,4.00
2019-01-21T05:37:37.370Z,4.00
2019-01-21T05:38:37.345Z,4.00
2019-01-21T05:39:37.320Z,4.00
2019-01-21T05:40:37.292Z,4.00
2019-01-21T05:41:37.246Z,4.00
2019-01-21T05:42:37.218Z,4.00
2019-01-21T05:43:37.189Z,4.00
2019-01-21T05:44:37.165Z,4.00
2019-01-21T05:45:37.126Z,4.00
2019-01-21T05:46:37.093Z,4.00
2019-01-21T05:47:37.061Z,4.00
2019-01-21T05:48:37.030Z,4.00
2019-01-21T05:49:37.002Z,4.00
2019-01-21T05:50:36.976Z,4.00
2019-01-21T05:51:36.939Z,4.00
2019-01-21T05:52:36.905Z,4.00
2019-01-21T05:53:36.875Z,4.00
2019-01-21T05:54:36.845Z,4.00
2019-01-21T05:55:36.814Z,4.00
2019-01-21T05:56:36.782Z,4.00
2019-01-21T05:57:36.751Z,4.00
2019-01-21T05:58:36.733Z,4.00
2019-01-21T05:59:36.691Z,4.00
2019-01-21T06:00:36.659Z,4.00
2019-01-21T06:01:36.627Z,4.00
2019-01-21T06:02:36.596Z,4.00
2019-01-21T06:03:36.569Z,4.00
2019-01-21T06:04:36.533Z,4.00
2019-01-21T06:05:36.504Z,4.00
2019-01-21T06:06:36.471Z,4.00
2019-01-21T06:07:36.440Z,4.00
2019-01-21T06:08:36.408Z,4.00
2019-01-21T06:09:36.376Z,4.00
2019-01-21T06:10:36.346Z,4.00
2019-01-21T06:11:36.315Z,4.00
2019-01-21T06:12:36.295Z,4.00
2019-01-21T06:13:36.258Z,4.00
2019-01-21T06:14:36.233Z,4.00
2019-01-21T06:15:36.193Z,4.00
2019-01-21T06:16:36.160Z,4.00
2019-01-21T06:17:36.129Z,4.00
2019-01-21T06:18:36.102Z,4.00
2019-01-21T06:19:36.080Z,4.00
2019-01-21T06:20:36.036Z,4.00
2019-01-21T06:21:36.015Z,4.00
2019-01-21T06:22:35.981Z,4.00
2019-01-21T06:23:35.945Z,4.00
2019-01-21T06:24:35.922Z,4.00
2019-01-21T06:25:36.601Z,4.00
2019-01-21T06:26:35.857Z,4.00
2019-01-21T06:27:35.823Z,4.00
2019-01-21T06:28:35.789Z,4.00
2019-01-21T06:29:35.760Z,4.00
2019-01-21T06:30:35.725Z,4.00
2019-01-21T06:31:35.705Z,4.00
2019-01-21T06:32:35.669Z,4.00
2019-01-21T06:33:35.629Z,4.00
2019-01-21T06:34:35.601Z,4.00
2019-01-21T06:35:35.570Z,4.00
2019-01-21T06:36:35.538Z,4.00
2019-01-21T06:37:35.507Z,4.00
2019-01-21T06:38:35.478Z,4.00
2019-01-21T06:39:35.446Z,8.00
2019-01-21T06:40:35.427Z,4.00
2019-01-21T06:41:35.385Z,4.00
2019-01-21T06:42:35.353Z,4.00
2019-01-21T06:43:35.321Z,4.00
2019-01-21T06:44:35.292Z,4.00
2019-01-21T06:45:35.259Z,4.00
2019-01-21T06:46:35.329Z,8.00
2019-01-21T06:47:35.196Z,8.00
2019-01-21T06:48:35.166Z,4.00
2019-01-21T06:49:35.134Z,8.00
2019-01-21T06:50:35.102Z,8.00
2019-01-21T06:51:35.072Z,8.00
2019-01-21T06:52:35.042Z,8.00
2019-01-21T06:53:35.012Z,8.00
2019-01-21T06:54:34.979Z,8.00
2019-01-21T06:55:35.008Z,12.00
2019-01-21T06:56:34.927Z,12.00
2019-01-21T06:57:34.893Z,12.00
2019-01-21T06:58:34.856Z,16.00
2019-01-21T06:59:34.824Z,16.00
2019-01-21T07:00:34.797Z,20.00
2019-01-21T07:01:34.763Z,24.00
2019-01-21T07:02:35.227Z,20.00
2019-01-21T07:03:34.703Z,24.00
2019-01-21T07:04:34.671Z,32.00
2019-01-21T07:05:34.638Z,32.00
2019-01-21T07:06:34.606Z,40.00
2019-01-21T07:07:34.576Z,44.00
2019-01-21T07:08:34.566Z,48.00
2019-01-21T07:09:34.512Z,56.00
2019-01-21T07:10:34.481Z,68.00
2019-01-21T07:11:34.460Z,72.00
2019-01-21T07:12:34.423Z,84.00
2019-01-21T07:13:34.395Z,92.00
2019-01-21T07:14:34.356Z,108.00
2019-01-21T07:15:34.328Z,120.00
2019-01-21T07:16:34.295Z,136.00
2019-01-21T07:17:34.264Z,152.00
2019-01-21T07:18:34.241Z,164.00
2019-01-21T07:19:34.201Z,184.00
2019-01-21T07:20:34.172Z,200.00
2019-01-21T07:21:34.145Z,220.00
2019-01-21T07:22:34.106Z,244.00
2019-01-21T07:23:34.076Z,260.00
2019-01-21T07:24:34.046Z,284.00
2019-01-21T07:25:34.013Z,308.00
2019-01-21T07:26:33.983Z,336.00
2019-01-21T07:27:33.960Z,360.00
2019-01-21T07:28:33.920Z,384.00
2019-01-21T07:29:33.888Z,416.00
2019-01-21T07:30:33.858Z,436.00
2019-01-21T07:31:33.839Z,468.00
2019-01-21T07:32:33.797Z,500.00
2019-01-21T07:33:33.763Z,528.00
2019-01-21T07:34:33.736Z,560.00
2019-01-21T07:35:33.703Z,596.00
2019-01-21T07:36:33.671Z,628.00
2019-01-21T07:37:33.657Z,668.00
2019-01-21T07:38:33.607Z,704.00
2019-01-21T07:39:33.951Z,744.00
2019-01-21T07:40:33.548Z,780.00
2019-01-21T07:41:33.517Z,816.00
2019-01-21T07:42:33.492Z,860.00
2019-01-21T07:43:33.456Z,900.00
2019-01-21T07:44:33.425Z,944.00
2019-01-21T07:45:33.389Z,988.00
2019-01-21T07:46:33.367Z,1032.00
2019-01-21T07:47:33.330Z,1076.00
2019-01-21T07:48:33.295Z,1116.00
2019-01-21T07:49:33.263Z,1156.00
2019-01-21T07:50:33.235Z,1196.00
2019-01-21T07:51:33.211Z,1240.00
2019-01-21T07:52:33.179Z,1284.00
2019-01-21T07:53:33.146Z,1332.00
2019-01-21T07:54:33.115Z,1376.00
2019-01-21T07:55:33.092Z,1420.00
2019-01-21T07:56:33.046Z,1464.00
2019-01-21T07:57:33.015Z,1508.00
2019-01-21T07:58:32.983Z,1552.00
2019-01-21T07:59:32.961Z,1588.00
2019-01-21T08:00:32.923Z,1628.00
2019-01-21T08:01:32.888Z,1672.00
2019-01-21T08:02:32.861Z,1712.00
2019-01-21T08:03:32.827Z,1748.00
2019-01-21T08:04:32.796Z,1780.00
2019-01-21T08:05:32.763Z,1820.00
2019-01-21T08:06:32.741Z,1856.00
2019-01-21T08:07:32.701Z,1892.00
2019-01-21T08:08:32.670Z,1928.00
2019-01-21T08:09:32.637Z,1964.00
2019-01-21T08:10:32.610Z,1992.00
2019-01-21T08:11:32.579Z,2024.00
2019-01-21T08:12:32.554Z,2052.00
2019-01-21T08:13:32.516Z,2080.00
2019-01-21T08:14:32.484Z,2104.00
2019-01-21T08:15:32.453Z,2136.00
2019-01-21T08:16:32.422Z,2160.00
2019-01-21T08:17:32.389Z,2176.00
2019-01-21T08:18:32.360Z,2200.00
2019-01-21T08:19:32.328Z,2228.00
2019-01-21T08:20:32.298Z,2256.00
2019-01-21T08:21:32.272Z,2292.00
2019-01-21T08:22:32.241Z,2308.00
2019-01-21T08:23:32.204Z,2332.00
2019-01-21T08:24:32.174Z,2356.00
2019-01-21T08:25:32.141Z,2388.00
2019-01-21T08:26:32.111Z,2392.00
2019-01-21T08:27:32.079Z,2376.00
2019-01-21T08:28:32.059Z,2388.00
2019-01-21T08:29:32.017Z,2440.00
2019-01-21T08:30:31.994Z,2480.00
2019-01-21T08:31:31.958Z,2500.00
2019-01-21T08:32:31.930Z,2504.00
2019-01-21T08:33:31.893Z,2496.00
2019-01-21T08:34:31.864Z,2488.00
2019-01-21T08:35:31.833Z,2488.00
2019-01-21T08:36:31.802Z,2480.00
2019-01-21T08:37:31.771Z,2476.00
2019-01-21T08:38:31.747Z,2516.00
2019-01-21T08:39:31.712Z,2588.00
2019-01-21T08:40:31.685Z,2640.00
2019-01-21T08:41:31.646Z,2644.00
2019-01-21T08:42:31.623Z,2668.00
2019-01-21T08:43:31.603Z,2724.00
2019-01-21T08:44:31.561Z,2716.00
2019-01-21T08:45:31.531Z,2700.00
2019-01-21T08:46:31.491Z,2748.00
2019-01-21T08:47:31.468Z,2812.00
2019-01-21T08:48:31.435Z,2840.00
2019-01-21T08:49:31.397Z,2868.00
2019-01-21T08:50:31.376Z,2860.00
2019-01-21T08:51:31.345Z,2872.00
2019-01-21T08:52:31.310Z,2868.00
2019-01-21T08:53:31.291Z,2852.00
2019-01-21T08:54:31.244Z,2880.00
2019-01-21T08:55:31.213Z,3012.00
2019-01-21T08:56:31.183Z,3144.00
2019-01-21T08:57:31.150Z,3200.00
2019-01-21T08:58:31.120Z,3192.00
2019-01-21T08:59:31.089Z,3192.00
2019-01-21T09:00:31.059Z,3228.00
2019-01-21T09:01:31.039Z,3252.00
2019-01-21T09:02:31.006Z,3248.00
2019-01-21T09:03:30.970Z,3252.00
2019-01-21T09:04:30.944Z,3276.00
2019-01-21T09:05:30.903Z,3272.00
2019-01-21T09:06:30.881Z,3256.00
2019-01-21T09:07:30.850Z,3280.00
2019-01-21T09:08:30.811Z,3364.00
2019-01-21T09:09:30.794Z,3400.00
2019-01-21T09:10:30.751Z,3408.00
2019-01-21T09:11:30.727Z,3424.00
2019-01-21T09:12:30.688Z,3436.00
2019-01-21T09:13:30.667Z,3484.00
2019-01-21T09:14:30.627Z,3472.00
2019-01-21T09:15:30.596Z,3488.00
2019-01-21T09:16:30.567Z,3504.00
2019-01-21T09:17:30.535Z,3492.00
2019-01-21T09:18:30.504Z,3552.00
2019-01-21T09:19:30.475Z,3624.00
2019-01-21T09:20:30.452Z,3632.00
2019-01-21T09:21:30.418Z,3660.00
2019-01-21T09:22:30.389Z,3664.00
2019-01-21T09:23:30.352Z,3648.00
2019-01-21T09:24:30.325Z,3652.00
2019-01-21T09:25:30.292Z,3648.00
2019-01-21T09:26:30.260Z,3644.00
2019-01-21T09:27:30.231Z,3708.00
2019-01-21T09:28:30.199Z,3716.00
2019-01-21T09:29:30.168Z,3748.00
2019-01-21T09:30:30.140Z,3764.00
2019-01-21T09:31:30.116Z,3780.00
2019-01-21T09:32:30.081Z,3808.00
2019-01-21T09:33:30.049Z,3828.00
2019-01-21T09:34:30.033Z,3860.00
2019-01-21T09:35:29.987Z,3868.00
2019-01-21T09:36:29.958Z,3916.00
2019-01-21T09:37:29.941Z,3948.00
2019-01-21T09:38:29.898Z,3944.00
2019-01-21T09:39:29.881Z,4004.00
2019-01-21T09:40:29.837Z,4100.00
2019-01-21T09:41:29.804Z,4120.00
2019-01-21T09:42:29.775Z,4124.00
2019-01-21T09:43:29.746Z,4108.00
2019-01-21T09:44:29.722Z,4060.00
2019-01-21T09:45:29.684Z,4100.00
2019-01-21T09:46:29.663Z,4124.00
2019-01-21T09:47:29.626Z,4120.00
2019-01-21T09:48:29.593Z,4084.00
2019-01-21T09:49:29.562Z,4108.00
2019-01-21T09:50:29.533Z,4128.00
2019-01-21T09:51:29.512Z,4128.00
2019-01-21T09:52:29.487Z,4172.00
2019-01-21T09:53:29.447Z,4196.00
2019-01-21T09:54:29.414Z,4232.00
2019-01-21T09:55:29.388Z,4244.00
2019-01-21T09:56:29.366Z,4252.00
2019-01-21T09:57:29.324Z,4260.00
2019-01-21T09:58:29.309Z,4240.00
2019-01-21T09:59:29.268Z,4256.00
2019-01-21T10:00:29.232Z,4268.00
2019-01-21T10:01:29.217Z,4276.00
2019-01-21T10:02:29.175Z,4312.00
2019-01-21T10:03:29.147Z,4356.00
2019-01-21T10:04:29.113Z,4392.00
2019-01-21T10:05:29.083Z,4384.00
2019-01-21T10:06:29.052Z,4436.00
2019-01-21T10:07:29.025Z,4472.00
2019-01-21T10:08:29.002Z,4508.00
2019-01-21T10:09:28.972Z,4516.00
2019-01-21T10:10:28.933Z,4572.00
2019-01-21T10:11:28.912Z,4648.00
2019-01-21T10:12:28.881Z,4932.00
2019-01-21T10:13:28.843Z,9624.00
2019-01-21T10:14:28.823Z,17856.00
2019-01-21T10:15:30.021Z,25728.00
2019-01-21T10:16:28.758Z,32128.00
2019-01-21T10:17:28.738Z,32576.00
2019-01-21T10:18:28.697Z,30624.00
2019-01-21T10:19:28.675Z,29856.00
2019-01-21T10:20:28.640Z,31360.00
2019-01-21T10:21:28.606Z,31104.00
2019-01-21T10:22:28.589Z,31232.00
2019-01-21T10:23:28.552Z,32096.00
2019-01-21T10:24:28.529Z,31168.00
2019-01-21T10:25:28.496Z,29152.00
2019-01-21T10:26:28.471Z,30816.00
2019-01-21T10:27:28.436Z,30656.00
2019-01-21T10:28:28.440Z,27520.00
2019-01-21T10:29:28.379Z,25280.00
2019-01-21T10:30:28.352Z,23616.00
2019-01-21T10:31:28.326Z,21760.00
2019-01-21T10:32:28.296Z,17728.00
2019-01-21T10:33:28.271Z,11160.00
2019-01-21T10:34:28.251Z,8860.00
2019-01-21T10:35:28.216Z,8492.00
2019-01-21T10:36:28.189Z,8368.00
2019-01-21T10:37:28.165Z,8208.00
2019-01-21T10:38:28.140Z,8016.00
2019-01-21T10:39:28.116Z,7984.00
2019-01-21T10:40:28.100Z,7856.00
2019-01-21T10:41:28.055Z,7860.00
2019-01-21T10:42:28.028Z,7696.00
2019-01-21T10:43:28.004Z,7720.00
2019-01-21T10:44:27.978Z,7584.00
2019-01-21T10:45:27.951Z,7488.00
2019-01-21T10:46:28.084Z,7432.00
2019-01-21T10:47:27.898Z,7420.00
2019-01-21T10:48:27.875Z,7420.00
2019-01-21T10:49:27.847Z,7340.00
2019-01-21T10:50:27.831Z,7316.00
2019-01-21T10:51:27.797Z,7228.00
2019-01-21T10:52:27.773Z,7140.00
2019-01-21T10:53:27.765Z,7128.00
2019-01-21T10:54:27.720Z,7064.00
2019-01-21T10:55:27.692Z,7024.00
2019-01-21T10:56:27.667Z,6976.00
2019-01-21T10:57:27.643Z,6940.00
2019-01-21T10:58:27.617Z,6908.00
2019-01-21T10:59:27.599Z,6880.00
2019-01-21T11:00:27.569Z,6900.00
2019-01-21T11:01:27.553Z,6888.00
2019-01-21T11:02:27.524Z,6900.00
2019-01-21T11:03:27.488Z,6848.00
2019-01-21T11:04:27.462Z,6736.00
2019-01-21T11:05:27.437Z,6724.00
2019-01-21T11:06:27.411Z,6716.00
2019-01-21T11:07:27.394Z,6660.00
2019-01-21T11:08:27.372Z,6556.00
2019-01-21T11:09:27.334Z,6496.00
2019-01-21T11:10:27.309Z,6544.00
2019-01-21T11:11:27.285Z,6440.00
2019-01-21T11:12:27.261Z,6432.00
2019-01-21T11:13:27.238Z,6388.00
2019-01-21T11:14:27.209Z,6248.00
2019-01-21T11:15:27.189Z,5944.00
2019-01-21T11:16:27.163Z,5776.00
2019-01-21T11:17:27.180Z,5748.00
2019-01-21T11:18:27.112Z,5760.00
2019-01-21T11:19:27.091Z,5688.00
2019-01-21T11:20:27.065Z,5652.00
2019-01-21T11:21:27.041Z,5524.00
2019-01-21T11:22:27.006Z,5548.00
2019-01-21T11:23:26.981Z,5528.00
2019-01-21T11:24:26.954Z,5468.00
2019-01-21T11:25:26.928Z,5460.00
2019-01-21T11:26:26.904Z,5480.00
2019-01-21T11:27:26.880Z,5356.00
2019-01-21T11:28:26.852Z,5248.00
2019-01-21T11:29:26.840Z,5208.00
2019-01-21T11:30:26.801Z,5132.00
2019-01-21T11:31:26.776Z,5120.00
2019-01-21T11:32:26.750Z,5096.00
2019-01-21T11:33:26.725Z,5116.00
2019-01-21T11:34:26.699Z,5100.00
2019-01-21T11:35:26.674Z,5116.00
2019-01-21T11:36:26.649Z,5048.00
2019-01-21T11:37:26.623Z,5004.00
2019-01-21T11:38:26.605Z,4984.00
2019-01-21T11:39:26.572Z,4944.00
2019-01-21T11:40:26.549Z,4896.00
2019-01-21T11:41:26.527Z,4892.00
2019-01-21T11:42:26.500Z,4808.00
2019-01-21T11:43:26.472Z,4812.00
2019-01-21T11:44:26.456Z,4824.00
2019-01-21T11:45:26.442Z,4804.00
2019-01-21T11:46:26.401Z,4812.00
2019-01-21T11:47:26.372Z,4816.00
2019-01-21T11:48:26.353Z,4804.00
2019-01-21T11:49:26.378Z,4764.00
2019-01-21T11:50:26.294Z,4768.00
2019-01-21T11:51:26.273Z,4780.00
2019-01-21T11:52:26.241Z,4716.00
2019-01-21T11:53:26.221Z,4704.00
2019-01-21T11:54:27.607Z,4724.00
2019-01-21T11:55:26.162Z,4736.00
2019-01-21T11:56:26.138Z,4692.00
2019-01-21T11:57:26.111Z,4644.00
2019-01-21T11:58:26.086Z,4604.00
2019-01-21T11:59:26.062Z,4572.00
2019-01-21T12:00:26.052Z,4556.00
2019-01-21T12:01:26.017Z,4524.00
2019-01-21T12:02:25.990Z,4448.00
2019-01-21T12:03:25.978Z,4372.00
2019-01-21T12:04:25.940Z,4320.00
2019-01-21T12:05:25.908Z,4344.00
2019-01-21T12:06:25.881Z,4344.00
2019-01-21T12:07:25.857Z,4320.00
2019-01-21T12:08:25.831Z,4304.00
2019-01-21T12:09:25.806Z,4292.00
2019-01-21T12:10:25.778Z,4288.00
2019-01-21T12:11:25.761Z,4220.00
2019-01-21T12:12:25.733Z,4208.00
2019-01-21T12:13:25.702Z,4200.00
2019-01-21T12:14:25.697Z,4144.00
2019-01-21T12:15:25.653Z,4116.00
2019-01-21T12:16:25.632Z,4148.00
2019-01-21T12:17:25.601Z,4188.00
2019-01-21T12:18:25.586Z,4156.00
2019-01-21T12:19:25.548Z,4180.00
2019-01-21T12:20:25.521Z,4600.00
2019-01-21T12:21:25.497Z,4964.00
2019-01-21T12:22:25.469Z,5008.00
2019-01-21T12:23:26.305Z,4996.00
2019-01-21T12:24:25.422Z,4916.00
2019-01-21T12:25:25.390Z,4876.00
2019-01-21T12:26:25.368Z,4736.00
2019-01-21T12:27:25.347Z,4224.00
2019-01-21T12:28:25.313Z,3912.00
2019-01-21T12:29:25.295Z,3860.00
2019-01-21T12:30:25.261Z,3824.00
2019-01-21T12:31:25.247Z,3752.00
2019-01-21T12:32:25.208Z,3692.00
2019-01-21T12:33:25.182Z,3676.00
2019-01-21T12:34:25.155Z,3660.00
2019-01-21T12:35:25.144Z,3676.00
2019-01-21T12:36:25.116Z,3644.00
2019-01-21T12:37:25.082Z,3652.00
2019-01-21T12:38:25.052Z,3688.00
2019-01-21T12:39:25.026Z,3716.00
2019-01-21T12:40:25.001Z,3680.00
2019-01-21T12:41:24.975Z,3680.00
2019-01-21T12:42:24.947Z,3648.00
2019-01-21T12:43:24.922Z,3636.00
2019-01-21T12:44:24.896Z,3632.00
2019-01-21T12:45:24.873Z,3572.00